Aviation Digital Data Service (ADDS)

Output produced by TAFs form (0039 UTC 24 April 2014)
found at http://www.aviationweather.gov/adds/tafs/
 
KALB 232333Z 2400/2424 32013G22KT P6SM BKN045 
     FM240100 31014G24KT P6SM SCT050 
     FM241400 32020G30KT P6SM SKC